Terminal Aerodrome Forecast
Issued by NWS Shreveport, LA

Home | Current Version | Previous Version | Text Only | Print | Product List | Glossary On
Versions: 1 2 3 4 5 6 7 8 9 10 11 12 13 14 15 16 17 18
000
FTUS44 KSHV 261735
TAFSHV
TAF
KSHV 261735Z 2618/2718 18011G18KT P6SM SCT025 OVC150
     FM261900 18011KT P6SM VCTS BKN035CB
     FM270200 16008KT P6SM BKN100
     FM271200 16008KT P6SM BKN015
     FM271700 16012G18KT P6SM VCTS BKN025CB=

USA.gov is the U.S. government's official web portal to all federal, state and local government web resources and services.